Time;durP1;ratioP1;P1;durP2;ratioP2;P2;SDS_P1;SDS_P2;PMS_P1;PMS_P2;Temp;Humidity;BMP_temperature;BMP_pressure;BME280_temperature;BME280_humidity;BME280_pressure;Samples;Min_cycle;Max_cycle;Signal;HPM_P1;HPM_P2
2021/09/14 00:01:07;;;;;;;8.93;5.95;;;435.90;2227.20;;;;;;5030227;28;20034;-62
2021/09/14 00:03:32;;;;;;;10.20;6.45;;;435.90;2227.20;;;;;;5030667;28;20056;-62
2021/09/14 00:05:58;;;;;;;8.75;6.43;;;435.90;2227.20;;;;;;5030440;28;20057;-62
2021/09/14 00:08:25;;;;;;;10.25;6.50;;;436.00;2227.20;;;;;;5030339;28;20104;-62
2021/09/14 00:10:51;;;;;;;9.05;7.18;;;436.00;2227.20;;;;;;5030419;28;20040;-62
2021/09/14 00:13:17;;;;;;;11.43;7.15;;;436.00;2227.20;;;;;;5030167;28;20072;-62
2021/09/14 00:15:43;;;;;;;8.80;6.03;;;436.00;2227.20;;;;;;5030338;28;20430;-62
2021/09/14 00:18:09;;;;;;;8.75;6.55;;;435.90;2227.20;;;;;;5030173;28;20029;-59
2021/09/14 00:20:35;;;;;;;11.05;6.82;;;435.90;2252.80;;;;;;5030030;28;20479;-62
2021/09/14 00:23:02;;;;;;;10.55;6.63;;;435.80;2278.40;;;;;;5030491;28;20029;-61
2021/09/14 00:25:28;;;;;;;10.85;6.72;;;435.60;2329.60;;;;;;5030168;28;20022;-61
2021/09/14 00:27:54;;;;;;;10.95;7.78;;;435.60;2329.60;;;;;;5029838;28;20415;-62
2021/09/14 00:30:20;;;;;;;8.90;7.18;;;435.60;2304.00;;;;;;5030142;28;20030;-61
2021/09/14 00:32:46;;;;;;;9.95;6.97;;;435.70;2329.60;;;;;;5029830;28;20048;-62
2021/09/14 00:35:11;;;;;;;9.02;6.65;;;435.60;2329.60;;;;;;5030009;28;20022;-62
2021/09/14 00:37:37;;;;;;;8.25;6.72;;;435.60;2355.20;;;;;;5029746;28;20100;-61
2021/09/14 00:40:05;;;;;;;8.25;6.88;;;435.70;2329.60;;;;;;5029660;28;20041;-62
2021/09/14 00:42:31;;;;;;;8.15;5.68;;;435.70;2329.60;;;;;;5030155;28;20021;-61
2021/09/14 00:44:57;;;;;;;10.23;7.07;;;435.80;2329.60;;;;;;5029754;28;20060;-62
2021/09/14 00:47:23;;;;;;;11.18;6.75;;;435.80;2329.60;;;;;;5029721;28;20057;-62
2021/09/14 00:49:49;;;;;;;8.45;6.90;;;435.70;2355.20;;;;;;5030127;28;20026;-61
2021/09/14 00:52:14;;;;;;;8.30;6.30;;;435.60;2355.20;;;;;;5029916;28;20463;-62
2021/09/14 00:54:41;;;;;;;8.43;6.85;;;435.60;2355.20;;;;;;5030010;28;20029;-61
2021/09/14 00:57:07;;;;;;;7.75;6.72;;;435.70;2355.20;;;;;;5029499;28;20056;-62
2021/09/14 00:59:33;;;;;;;9.45;6.38;;;435.80;2355.20;;;;;;5029953;28;20022;-61
2021/09/14 01:01:59;;;;;;;11.25;7.35;;;435.70;2355.20;;;;;;5029860;28;20022;-62
2021/09/14 01:04:25;;;;;;;8.50;6.75;;;435.80;2329.60;;;;;;5030557;28;20029;-61
2021/09/14 01:06:51;;;;;;;10.57;7.10;;;435.80;2355.20;;;;;;5033693;28;20029;-61
2021/09/14 01:09:17;;;;;;;11.30;8.05;;;435.60;2355.20;;;;;;5033546;28;20057;-60
2021/09/14 01:11:44;;;;;;;8.40;6.90;;;435.50;2355.20;;;;;;5033447;28;20017;-62
2021/09/14 01:14:10;;;;;;;8.63;7.07;;;435.50;2355.20;;;;;;5033650;28;20033;-61
2021/09/14 01:16:37;;;;;;;10.05;7.22;;;435.50;2355.20;;;;;;5033096;28;20487;-62
2021/09/14 01:19:08;;;;;;;9.48;7.15;;;435.30;2355.20;;;;;;5033464;28;20083;-62
2021/09/14 01:21:34;;;;;;;9.82;6.32;;;435.30;2355.20;;;;;;5033309;28;20069;-62
2021/09/14 01:24:01;;;;;;;8.68;6.32;;;435.30;2355.20;;;;;;5033650;28;20025;-61
2021/09/14 01:26:27;;;;;;;13.00;6.57;;;435.40;2355.20;;;;;;5032940;28;20116;-62
2021/09/14 01:28:53;;;;;;;9.65;6.88;;;435.50;2355.20;;;;;;5033136;28;20028;-62
2021/09/14 01:31:20;;;;;;;9.57;7.38;;;435.50;2355.20;;;;;;5033292;28;20096;-62
2021/09/14 01:33:50;;;;;;;12.18;7.28;;;435.50;2355.20;;;;;;5032915;28;20395;-62
2021/09/14 01:36:17;;;;;;;6.97;6.18;;;435.50;2355.20;;;;;;5033239;28;20083;-61
2021/09/14 01:38:43;;;;;;;7.60;6.47;;;435.50;2355.20;;;;;;5033195;28;20032;-63
2021/09/14 01:41:09;;;;;;;9.20;6.68;;;435.50;2355.20;;;;;;5032987;28;20025;-61
2021/09/14 01:43:36;;;;;;;10.68;6.07;;;435.40;2355.20;;;;;;5032940;28;20379;-62
2021/09/14 01:46:02;;;;;;;10.02;6.63;;;435.50;2355.20;;;;;;5033068;28;20018;-61
2021/09/14 01:48:28;;;;;;;8.70;6.40;;;435.50;2355.20;;;;;;5033038;28;20029;-61
2021/09/14 01:50:54;;;;;;;9.65;6.85;;;435.50;2355.20;;;;;;5032901;28;20103;-62
2021/09/14 01:53:22;;;;;;;8.63;7.13;;;435.60;2355.20;;;;;;5033184;28;20057;-61
2021/09/14 01:55:48;;;;;;;9.52;6.32;;;435.50;2355.20;;;;;;5032832;28;20025;-61
2021/09/14 01:58:14;;;;;;;8.98;6.43;;;435.50;2355.20;;;;;;5032410;28;20045;-62
2021/09/14 02:00:47;;;;;;;9.10;6.60;;;435.50;2355.20;;;;;;5032585;28;20043;-61
2021/09/14 02:03:33;;;;;;;8.13;6.68;;;435.50;2355.20;;;;;;5032727;28;20048;-61
2021/09/14 02:44:02;;;;;;;8.00;7.20;;;435.50;2355.20;;;;;;5032265;28;20056;-61
2021/09/14 03:00:27;;;;;;;7.45;6.35;;;435.30;2355.20;;;;;;5011724;28;20102;-62
2021/09/14 03:02:53;;;;;;;10.35;6.50;;;435.20;2355.20;;;;;;5049385;28;20020;-61
2021/09/14 03:05:18;;;;;;;8.25;6.55;;;435.20;2355.20;;;;;;5049497;28;20119;-61
2021/09/14 03:07:44;;;;;;;9.32;5.90;;;435.20;2355.20;;;;;;5049100;28;20021;-61
2021/09/14 03:10:10;;;;;;;8.63;6.60;;;435.20;2355.20;;;;;;5049209;28;20029;-62
2021/09/14 03:12:36;;;;;;;9.77;6.68;;;435.20;2355.20;;;;;;5049032;28;20087;-62
2021/09/14 03:15:01;;;;;;;14.43;7.38;;;435.20;2355.20;;;;;;5049369;28;20498;-61
2021/09/14 03:17:27;;;;;;;8.00;6.45;;;435.20;2355.20;;;;;;5048797;28;20047;-62
2021/09/14 03:19:53;;;;;;;8.10;6.95;;;435.20;2355.20;;;;;;5048924;28;20040;-61
2021/09/14 03:22:18;;;;;;;8.50;6.93;;;435.30;2355.20;;;;;;5048996;28;20048;-61
2021/09/14 03:24:44;;;;;;;8.73;6.70;;;435.30;2355.20;;;;;;5048956;28;20140;-62
2021/09/14 03:27:10;;;;;;;7.97;6.28;;;435.30;2355.20;;;;;;5048676;28;20044;-62
2021/09/14 03:29:35;;;;;;;10.45;6.45;;;435.30;2355.20;;;;;;5048536;28;20028;-60
2021/09/14 03:32:01;;;;;;;7.25;6.43;;;435.20;2355.20;;;;;;5034244;28;20056;-61
2021/09/14 03:34:27;;;;;;;8.00;6.57;;;435.20;2355.20;;;;;;5030868;28;20033;-62
2021/09/14 03:36:53;;;;;;;9.10;6.53;;;410.50;2355.20;;;;;;5030872;28;20030;-61
2021/09/14 03:39:18;;;;;;;8.50;6.85;;;410.50;2355.20;;;;;;5030775;28;20025;-59
2021/09/14 03:41:44;;;;;;;10.95;6.60;;;435.20;2355.20;;;;;;5030658;28;20036;-61
2021/09/14 03:44:10;;;;;;;9.55;6.57;;;410.50;2355.20;;;;;;5031015;28;20036;-61
2021/09/14 03:46:35;;;;;;;9.48;6.85;;;410.50;2355.20;;;;;;5029210;28;20045;-61
2021/09/14 03:49:02;;;;;;;11.55;6.38;;;410.50;2355.20;;;;;;5030934;28;20037;-61
2021/09/14 03:51:28;;;;;;;8.70;7.15;;;410.50;2355.20;;;;;;5030647;28;20029;-61
2021/09/14 03:53:54;;;;;;;9.32;7.65;;;410.50;2355.20;;;;;;5030543;28;20482;-61
2021/09/14 03:56:20;;;;;;;11.65;7.57;;;410.40;2355.20;;;;;;5030397;28;20475;-61
2021/09/14 03:58:45;;;;;;;8.55;7.30;;;410.40;2355.20;;;;;;5030657;28;20026;-61
2021/09/14 04:01:11;;;;;;;11.55;7.25;;;410.40;2355.20;;;;;;5030662;28;20051;-61
2021/09/14 04:03:40;;;;;;;8.57;6.60;;;410.30;2355.20;;;;;;5030591;28;20087;-61
2021/09/14 04:08:53;;;;;;;8.95;6.43;;;410.30;2355.20;;;;;;5030349;28;20108;-61
2021/09/14 04:11:22;;;;;;;9.18;7.43;;;410.30;2355.20;;;;;;5030597;28;20029;-61
2021/09/14 04:13:52;;;;;;;9.68;7.75;;;410.30;2355.20;;;;;;5030655;28;20108;-61
2021/09/14 04:16:19;;;;;;;8.00;7.18;;;410.30;2355.20;;;;;;5030128;28;20053;-61
2021/09/14 04:18:45;;;;;;;13.90;7.53;;;410.30;2355.20;;;;;;5030384;28;20121;-60
2021/09/14 04:21:11;;;;;;;12.93;7.35;;;410.30;2355.20;;;;;;5030284;28;20109;-60
2021/09/14 04:23:37;;;;;;;11.18;7.88;;;410.30;2355.20;;;;;;5030125;28;20029;-62
2021/09/14 04:26:03;;;;;;;9.93;7.65;;;410.20;2355.20;;;;;;5030312;28;20025;-61
2021/09/14 04:28:28;;;;;;;11.48;7.18;;;410.20;2355.20;;;;;;5030415;28;20360;-61
2021/09/14 04:30:54;;;;;;;10.77;7.53;;;410.30;2355.20;;;;;;5030109;28;20025;-62
2021/09/14 04:33:20;;;;;;;9.15;6.97;;;410.40;2355.20;;;;;;5030427;28;20022;-61
2021/09/14 04:35:45;;;;;;;11.18;7.10;;;410.50;2355.20;;;;;;5030035;28;20391;-59
2021/09/14 04:38:11;;;;;;;9.45;6.72;;;435.20;2355.20;;;;;;5030090;28;20025;-61
2021/09/14 04:40:37;;;;;;;9.93;7.78;;;410.50;2355.20;;;;;;5032608;28;20029;-61
2021/09/14 04:43:03;;;;;;;11.73;8.20;;;435.20;2355.20;;;;;;5034353;28;20175;-61
2021/09/14 04:45:28;;;;;;;13.30;7.60;;;435.20;2355.20;;;;;;5034445;28;20056;-61
2021/09/14 04:47:54;;;;;;;10.02;7.88;;;435.30;2355.20;;;;;;5033936;28;20383;-61
2021/09/14 04:50:20;;;;;;;14.52;8.07;;;435.30;2355.20;;;;;;5034087;28;20040;-61
2021/09/14 04:52:46;;;;;;;15.38;8.18;;;435.40;2355.20;;;;;;5033880;28;20026;-61
2021/09/14 04:55:12;;;;;;;10.20;7.40;;;435.50;2355.20;;;;;;5033887;28;20156;-61
2021/09/14 04:57:37;;;;;;;15.48;8.05;;;435.60;2355.20;;;;;;5033497;28;20052;-61
2021/09/14 05:00:04;;;;;;;14.02;7.85;;;435.80;2355.20;;;;;;5033974;28;20038;-61
2021/09/14 05:02:30;;;;;;;10.52;7.40;;;435.70;2355.20;;;;;;5033937;28;20052;-61
2021/09/14 05:04:58;;;;;;;8.98;7.57;;;435.90;2355.20;;;;;;5033723;28;20061;-61
2021/09/14 05:07:24;;;;;;;10.82;8.20;;;436.00;2355.20;;;;;;5032488;28;20033;-61
2021/09/14 05:09:49;;;;;;;10.27;7.60;;;460.80;2380.80;;;;;;5033637;28;20456;-62
2021/09/14 05:12:15;;;;;;;9.82;7.35;;;460.90;2380.80;;;;;;5033526;28;20021;-61
2021/09/14 05:14:41;;;;;;;9.57;7.60;;;461.00;2380.80;;;;;;5033680;28;20436;-61
2021/09/14 05:17:06;;;;;;;9.90;7.10;;;461.10;2380.80;;;;;;5033276;28;20034;-61
2021/09/14 05:19:34;;;;;;;11.68;7.50;;;461.10;2380.80;;;;;;5033614;28;20026;-61
2021/09/14 05:22:01;;;;;;;10.25;6.95;;;461.20;2380.80;;;;;;5033517;28;20534;-61
2021/09/14 05:24:28;;;;;;;9.40;6.88;;;461.40;2380.80;;;;;;5033172;28;20109;-61
2021/09/14 05:26:55;;;;;;;12.35;6.72;;;461.50;2380.80;;;;;;5033113;28;20471;-62
2021/09/14 05:29:21;;;;;;;9.10;6.55;;;461.70;2380.80;;;;;;5033525;28;20025;-61
2021/09/14 05:31:47;;;;;;;13.52;7.60;;;461.70;2380.80;;;;;;5033097;28;20471;-60
2021/09/14 05:34:13;;;;;;;10.27;7.53;;;486.40;2380.80;;;;;;5033361;28;20442;-61
2021/09/14 05:36:40;;;;;;;12.27;8.55;;;486.50;2380.80;;;;;;5033167;28;20459;-62
2021/09/14 05:39:06;;;;;;;8.60;6.43;;;486.50;2380.80;;;;;;5032955;28;20459;-62
2021/09/14 05:41:31;;;;;;;9.88;7.00;;;486.70;2380.80;;;;;;5033075;28;20040;-61
2021/09/14 05:43:57;;;;;;;8.35;7.20;;;486.70;2380.80;;;;;;5032814;28;20052;-61
2021/09/14 05:46:25;;;;;;;12.23;7.25;;;487.00;2355.20;;;;;;5033207;28;20036;-61
2021/09/14 05:48:50;;;;;;;10.30;6.80;;;487.00;2304.00;;;;;;5033243;28;20026;-61
2021/09/14 05:51:16;;;;;;;10.98;7.60;;;487.30;2278.40;;;;;;5032813;28;20040;-61
2021/09/14 05:53:42;;;;;;;9.82;6.93;;;512.10;2278.40;;;;;;5032794;28;20021;-61
2021/09/14 05:56:08;;;;;;;12.80;7.50;;;512.30;2252.80;;;;;;5032540;28;20120;-61
2021/09/14 05:58:33;;;;;;;10.30;7.85;;;537.80;2201.60;;;;;;5032539;28;20120;-61
2021/09/14 06:00:59;;;;;;;9.95;7.60;;;563.40;2124.80;;;;;;5032647;28;20038;-61
2021/09/14 06:03:28;;;;;;;13.32;7.57;;;589.60;1996.80;;;;;;5032496;28;20430;-61
2021/09/14 06:05:54;;;;;;;12.07;8.00;;;665.70;1792.00;;;;;;5032490;28;20025;-62
2021/09/14 06:08:20;;;;;;;9.55;8.65;;;717.10;1612.80;;;;;;5032614;28;20144;-62
2021/09/14 06:10:45;;;;;;;10.52;8.60;;;743.20;1510.40;;;;;;5032190;28;20029;-62
2021/09/14 06:13:11;;;;;;;14.45;8.73;;;768.60;1433.60;;;;;;5032772;28;20029;-62
2021/09/14 06:15:37;;;;;;;22.42;12.82;;;794.50;1356.80;;;;;;5032189;28;20471;-62
2021/09/14 06:18:02;;;;;;;16.52;9.77;;;820.10;1280.00;;;;;;5032654;28;20029;-62
2021/09/14 06:20:28;;;;;;;10.27;9.25;;;845.20;1254.40;;;;;;5032190;28;20037;-62
2021/09/14 06:22:54;;;;;;;11.02;9.90;;;870.70;1203.20;;;;;;5032141;28;20143;-62
2021/09/14 06:25:20;;;;;;;12.20;11.13;;;871.00;1177.60;;;;;;5032326;28;20029;-62
2021/09/14 06:27:45;;;;;;;11.20;10.18;;;871.30;1152.00;;;;;;5031988;28;20022;-63
2021/09/14 06:30:11;;;;;;;12.48;10.70;;;896.60;1126.40;;;;;;5032326;28;20032;-62
2021/09/14 06:32:37;;;;;;;11.90;10.85;;;896.60;1126.40;;;;;;5031844;28;20032;-63
2021/09/14 06:35:03;;;;;;;11.38;10.48;;;896.40;1126.40;;;;;;5032233;28;20025;-62
2021/09/14 06:37:29;;;;;;;14.45;13.30;;;896.60;1126.40;;;;;;5032184;28;20087;-63
2021/09/14 06:39:55;;;;;;;13.68;12.68;;;922.00;1100.80;;;;;;5031695;28;20045;-63
2021/09/14 06:42:20;;;;;;;15.18;13.75;;;922.10;1075.20;;;;;;5031892;28;20426;-63
2021/09/14 06:44:46;;;;;;;14.65;13.65;;;947.20;1024.00;;;;;;5031701;28;20079;-63
2021/09/14 06:47:12;;;;;;;16.00;15.00;;;947.70;1024.00;;;;;;5031912;28;20539;-63
2021/09/14 06:49:38;;;;;;;15.55;14.48;;;973.20;1024.00;;;;;;5031599;28;20506;-63
2021/09/14 06:52:04;;;;;;;17.25;15.85;;;973.50;998.40;;;;;;5031823;28;20021;-63
2021/09/14 06:54:29;;;;;;;16.27;15.07;;;948.10;1024.00;;;;;;5031612;28;20083;-63
2021/09/14 06:56:55;;;;;;;14.98;13.93;;;947.40;1049.60;;;;;;5031188;28;20049;-62
2021/09/14 06:59:21;;;;;;;15.48;14.18;;;922.10;1075.20;;;;;;5031790;28;20021;-63
2021/09/14 07:01:47;;;;;;;16.33;14.82;;;921.80;1100.80;;;;;;5031023;28;20075;-63
2021/09/14 07:04:14;;;;;;;21.20;19.65;;;922.50;1075.20;;;;;;5031425;28;20072;-63
2021/09/14 07:06:40;;;;;;;15.15;14.10;;;947.30;1049.60;;;;;;5031379;28;20032;-63
2021/09/14 07:09:07;;;;;;;15.82;14.63;;;922.50;1049.60;;;;;;5031274;28;20032;-63
2021/09/14 07:11:33;;;;;;;15.00;13.88;;;922.50;1049.60;;;;;;5031419;28;20037;-62
2021/09/14 07:13:59;;;;;;;12.75;11.82;;;922.40;1075.20;;;;;;5031328;28;20030;-63
2021/09/14 07:16:25;;;;;;;13.82;12.82;;;947.90;1024.00;;;;;;5030862;28;20116;-62
2021/09/14 07:18:51;;;;;;;14.77;13.48;;;947.30;1049.60;;;;;;5031117;28;20096;-63
2021/09/14 07:21:17;;;;;;;13.60;12.43;;;973.20;1024.00;;;;;;5031068;28;20034;-63
2021/09/14 07:23:43;;;;;;;12.65;11.75;;;998.60;1024.00;;;;;;5031236;28;20526;-63
2021/09/14 07:26:09;;;;;;;14.27;13.02;;;1024.40;972.80;;;;;;5031066;28;20065;-63
2021/09/14 07:28:35;;;;;;;14.00;12.93;;;1049.90;972.80;;;;;;5030880;28;20057;-63
2021/09/14 07:31:01;;;;;;;14.52;13.35;;;1075.40;921.60;;;;;;5031567;28;20104;-63
2021/09/14 07:33:27;;;;;;;13.73;11.30;;;1075.50;947.20;;;;;;5030965;28;20028;-63
2021/09/14 07:35:53;;;;;;;14.90;12.77;;;1075.90;896.00;;;;;;5030967;28;20030;-63
2021/09/14 07:38:18;;;;;;;14.75;12.90;;;1100.80;921.60;;;;;;5031067;28;20028;-63
2021/09/14 07:40:45;;;;;;;13.05;11.98;;;1075.90;896.00;;;;;;5030638;28;20060;-64
2021/09/14 07:43:11;;;;;;;13.70;12.40;;;1100.90;896.00;;;;;;5030784;28;20021;-63
2021/09/14 07:45:36;;;;;;;13.40;12.35;;;1100.80;896.00;;;;;;5030733;28;20368;-64
2021/09/14 07:48:02;;;;;;;13.40;12.52;;;1075.90;896.00;;;;;;5030682;28;20032;-64
2021/09/14 07:50:28;;;;;;;11.60;10.70;;;1075.70;896.00;;;;;;5030925;28;20472;-64
2021/09/14 07:52:54;;;;;;;13.05;12.13;;;1075.70;896.00;;;;;;5030374;28;20025;-64
2021/09/14 07:55:20;;;;;;;12.15;11.25;;;1101.00;870.40;;;;;;5030792;28;20071;-64
2021/09/14 07:57:45;;;;;;;12.75;11.65;;;1101.30;870.40;;;;;;5030173;28;20403;-64
2021/09/14 08:00:12;;;;;;;13.50;12.20;;;1101.40;870.40;;;;;;5030910;28;20034;-63
2021/09/14 08:02:38;;;;;;;12.35;11.48;;;1126.40;896.00;;;;;;5030646;28;20017;-63
2021/09/14 08:05:05;;;;;;;13.65;12.55;;;1127.30;844.80;;;;;;5036779;28;20039;-63
2021/09/14 08:07:31;;;;;;;14.05;12.75;;;1126.60;896.00;;;;;;5039339;28;20122;-63
2021/09/14 08:09:57;;;;;;;12.70;11.80;;;1127.10;844.80;;;;;;5034921;28;20467;-64
2021/09/14 08:12:22;;;;;;;13.55;12.55;;;1152.40;819.20;;;;;;5047427;28;20021;-63
2021/09/14 08:14:48;;;;;;;13.00;11.68;;;1152.50;819.20;;;;;;5041554;28;20017;-63
2021/09/14 08:17:15;;;;;;;15.30;11.75;;;1152.20;819.20;;;;;;5031672;28;20087;-64
2021/09/14 08:19:42;;;;;;;12.82;11.50;;;1127.00;844.80;;;;;;5050053;28;20025;-63
2021/09/14 08:22:09;;;;;;;12.27;11.30;;;1152.00;819.20;;;;;;5050014;28;20471;-63
2021/09/14 08:24:35;;;;;;;12.18;11.10;;;1152.20;819.20;;;;;;5049887;28;20387;-64
2021/09/14 08:27:01;;;;;;;11.63;10.80;;;1152.40;819.20;;;;;;5050096;28;20021;-63
2021/09/14 08:29:26;;;;;;;12.55;11.32;;;1152.60;793.60;;;;;;5042606;28;20033;-64
2021/09/14 08:31:52;;;;;;;12.82;11.68;;;1126.90;844.80;;;;;;5044212;28;20041;-63
2021/09/14 08:34:18;;;;;;;12.20;11.30;;;1152.20;819.20;;;;;;5038340;28;20485;-65
2021/09/14 08:36:43;;;;;;;11.30;10.50;;;1101.50;844.80;;;;;;5037598;28;20040;-64
2021/09/14 08:39:09;;;;;;;11.43;10.32;;;1126.90;844.80;;;;;;5038469;28;20371;-62
2021/09/14 08:41:37;;;;;;;10.93;9.75;;;1126.60;844.80;;;;;;5033577;28;20044;-61
2021/09/14 08:44:04;;;;;;;12.98;11.65;;;1126.40;870.40;;;;;;5032379;28;20025;-64
2021/09/14 08:46:29;;;;;;;11.98;10.98;;;1100.80;870.40;;;;;;5036211;28;20033;-62
2021/09/14 08:48:58;;;;;;;12.73;11.45;;;1075.30;896.00;;;;;;5037337;28;20545;-62
2021/09/14 08:51:23;;;;;;;11.23;10.25;;;1075.20;896.00;;;;;;5036577;28;20380;-63
2021/09/14 08:53:49;;;;;;;10.35;9.38;;;1049.60;921.60;;;;;;5036807;28;20044;-61
2021/09/14 08:56:15;;;;;;;8.95;7.93;;;998.50;998.40;;;;;;5036846;28;20029;-63
2021/09/14 08:58:41;;;;;;;8.57;7.70;;;948.10;998.40;;;;;;5036673;28;20026;-62
2021/09/14 09:01:12;;;;;;;8.55;7.72;;;947.20;998.40;;;;;;5036438;28;20029;-63
2021/09/14 09:03:38;;;;;;;9.52;8.73;;;922.30;1049.60;;;;;;5037340;28;20030;-63
2021/09/14 09:06:04;;;;;;;11.18;8.57;;;921.70;1024.00;;;;;;5037732;28;20546;-63
2021/09/14 09:08:31;;;;;;;9.10;7.72;;;896.50;1075.20;;;;;;5037559;28;20032;-61
2021/09/14 09:11:05;;;;;;;9.10;7.40;;;871.20;1100.80;;;;;;5036671;28;20182;-62
2021/09/14 09:13:51;;;;;;;8.68;7.88;;;871.30;1075.20;;;;;;5036749;28;20040;-62
2021/09/14 09:16:25;;;;;;;12.60;7.57;;;870.80;1100.80;;;;;;5036408;28;20163;-61
2021/09/14 09:18:51;;;;;;;9.20;8.00;;;870.50;1126.40;;;;;;5036595;28;20360;-62
2021/09/14 09:21:17;;;;;;;8.63;6.88;;;845.70;1152.00;;;;;;5036799;28;20041;-61
2021/09/14 09:23:43;;;;;;;10.93;7.30;;;845.20;1126.40;;;;;;5036467;28;20049;-62
2021/09/14 09:26:09;;;;;;;8.50;7.03;;;845.20;1126.40;;;;;;5037731;28;20155;-62
2021/09/14 09:28:36;;;;;;;10.68;7.30;;;845.10;1177.60;;;;;;5040150;28;20021;-61
2021/09/14 09:31:08;;;;;;;11.35;7.35;;;845.20;1177.60;;;;;;5040119;28;20025;-62
2021/09/14 09:33:34;;;;;;;;;;;845.20;1203.20;;;;;;5041090;28;20013;-61
2021/09/14 09:36:08;;;;;;;8.25;7.35;;;820.00;1177.60;;;;;;5039978;28;19905;-63
2021/09/14 09:38:58;;;;;;;10.35;7.47;;;820.00;1177.60;;;;;;5040669;28;20116;-63
2021/09/14 09:41:25;;;;;;;8.80;7.90;;;819.70;1177.60;;;;;;5039889;28;20430;-62
2021/09/14 09:43:50;;;;;;;7.70;6.93;;;819.50;1203.20;;;;;;5040140;28;20155;-62
2021/09/14 09:46:20;;;;;;;12.05;7.80;;;819.50;1177.60;;;;;;5040222;28;20099;-61
2021/09/14 09:48:47;;;;;;;14.02;8.00;;;819.80;1203.20;;;;;;5039674;28;20454;-62
2021/09/14 09:51:13;;;;;;;8.95;7.72;;;819.60;1152.00;;;;;;5040495;28;20033;-62
2021/09/14 09:53:39;;;;;;;8.60;6.97;;;819.60;1177.60;;;;;;5040548;28;20021;-60
2021/09/14 09:56:06;;;;;;;11.30;8.20;;;819.80;1177.60;;;;;;5040817;28;20191;-63
2021/09/14 09:58:32;;;;;;;7.93;7.22;;;820.00;1177.60;;;;;;5040116;28;20041;-62
2021/09/14 10:01:05;;;;;;;11.05;8.35;;;820.10;1152.00;;;;;;5039474;28;20124;-63
2021/09/14 10:03:34;;;;;;;7.90;7.15;;;819.70;1177.60;;;;;;5040294;28;20021;-61
2021/09/14 10:06:08;;;;;;;9.48;8.38;;;820.00;1177.60;;;;;;5039833;28;20156;-62
2021/09/14 10:08:35;;;;;;;8.93;6.88;;;820.10;1203.20;;;;;;5040241;28;20056;-63
2021/09/14 10:11:00;;;;;;;9.35;7.20;;;820.00;1203.20;;;;;;5039785;28;20040;-63
2021/09/14 10:13:34;;;;;;;10.73;8.48;;;820.00;1228.80;;;;;;5039249;28;20463;-62
2021/09/14 10:16:00;;;;;;;10.30;7.82;;;820.00;1177.60;;;;;;5042161;28;20475;-62
2021/09/14 10:18:29;;;;;;;9.13;7.68;;;819.60;1177.60;;;;;;5038360;28;20071;-62
2021/09/14 10:20:55;;;;;;;11.70;8.68;;;819.30;1203.20;;;;;;5032215;28;20069;-62
2021/09/14 10:23:38;;;;;;;11.07;7.85;;;819.60;1203.20;;;;;;5050595;28;20091;-62
2021/09/14 10:26:09;;;;;;;8.13;7.32;;;819.80;1228.80;;;;;;5049799;28;20052;-62
2021/09/14 10:28:49;;;;;;;11.15;7.97;;;820.10;1177.60;;;;;;5033105;28;20510;-63
2021/09/14 10:31:20;;;;;;;8.75;7.82;;;844.80;1177.60;;;;;;5032166;28;20021;-63
2021/09/14 10:33:46;;;;;;;10.63;7.20;;;819.80;1177.60;;;;;;5032071;28;20029;-62
2021/09/14 10:36:13;;;;;;;8.77;6.97;;;819.80;1152.00;;;;;;5032138;28;20030;-62
2021/09/14 10:38:49;;;;;;;10.57;7.68;;;819.80;1152.00;;;;;;5031363;28;20037;-61
2021/09/14 10:41:17;;;;;;;10.15;7.68;;;819.80;1177.60;;;;;;5034090;28;20029;-62
2021/09/14 10:43:54;;;;;;;8.50;6.90;;;819.70;1177.60;;;;;;5034212;28;20025;-61
2021/09/14 10:46:21;;;;;;;9.02;7.15;;;819.40;1177.60;;;;;;5033193;28;20033;-62
2021/09/14 10:48:48;;;;;;;11.18;6.85;;;794.50;1177.60;;;;;;5044977;28;20040;-62
2021/09/14 10:51:18;;;;;;;7.68;6.97;;;794.50;1203.20;;;;;;5035061;28;20021;-62
2021/09/14 10:53:58;;;;;;;11.00;8.02;;;794.10;1203.20;;;;;;5044768;28;20031;-63
2021/09/14 10:56:26;;;;;;;8.63;7.50;;;793.90;1203.20;;;;;;5044266;28;20086;-62
2021/09/14 10:58:52;;;;;;;8.45;7.55;;;768.90;1228.80;;;;;;5031736;28;20116;-62
2021/09/14 11:01:25;;;;;;;12.30;10.18;;;768.90;1254.40;;;;;;5031302;28;20041;-63
2021/09/14 11:04:02;;;;;;;12.13;7.47;;;768.50;1254.40;;;;;;5038744;28;20025;-62
2021/09/14 11:06:32;;;;;;;11.35;7.63;;;768.10;1254.40;;;;;;5044949;28;20052;-62
2021/09/14 11:08:59;;;;;;;7.80;6.55;;;768.40;1254.40;;;;;;5051072;28;20056;-62
2021/09/14 11:11:24;;;;;;;7.80;7.00;;;768.20;1254.40;;;;;;5051066;28;20040;-62
2021/09/14 11:13:51;;;;;;;9.57;8.57;;;768.40;1254.40;;;;;;5051214;28;20025;-62
2021/09/14 11:16:17;;;;;;;10.30;7.82;;;768.20;1280.00;;;;;;5050992;28;20119;-62
2021/09/14 11:18:44;;;;;;;9.02;7.55;;;768.20;1280.00;;;;;;5051164;28;20048;-62
2021/09/14 11:21:11;;;;;;;9.07;7.40;;;768.30;1254.40;;;;;;5051042;28;20033;-62
2021/09/14 11:23:40;;;;;;;10.48;7.35;;;768.60;1254.40;;;;;;5050793;28;20070;-62
2021/09/14 11:26:11;;;;;;;8.65;7.38;;;768.60;1228.80;;;;;;5050840;28;20028;-63
2021/09/14 11:28:38;;;;;;;10.05;7.53;;;768.40;1254.40;;;;;;5050919;28;20053;-62
2021/09/14 11:31:08;;;;;;;8.50;7.28;;;768.40;1228.80;;;;;;5050749;28;20521;-62
2021/09/14 11:33:35;;;;;;;10.18;7.18;;;768.60;1228.80;;;;;;5051195;28;20476;-62
2021/09/14 11:36:05;;;;;;;9.38;7.00;;;768.60;1228.80;;;;;;5050959;28;20434;-63
2021/09/14 11:38:31;;;;;;;10.20;8.25;;;768.40;1254.40;;;;;;5051358;28;20032;-62
2021/09/14 11:41:00;;;;;;;9.07;6.97;;;768.40;1254.40;;;;;;5050319;28;20033;-62
2021/09/14 11:43:29;;;;;;;9.93;8.30;;;768.10;1254.40;;;;;;5050482;28;20037;-62
2021/09/14 11:45:56;;;;;;;10.70;7.53;;;768.20;1254.40;;;;;;5050770;28;20102;-63
2021/09/14 11:48:24;;;;;;;10.63;7.63;;;768.10;1254.40;;;;;;5048003;28;20025;-60
2021/09/14 11:51:10;;;;;;;7.78;6.97;;;768.10;1228.80;;;;;;5049189;28;20748;-62
2021/09/14 11:53:38;;;;;;;10.75;7.75;;;768.40;1228.80;;;;;;5048875;28;20063;-61
2021/09/14 11:56:13;;;;;;;9.65;7.47;;;768.50;1203.20;;;;;;5048790;28;20430;-63
2021/09/14 11:58:43;;;;;;;8.65;7.75;;;768.60;1203.20;;;;;;5048817;28;20043;-62
2021/09/14 12:01:10;;;;;;;11.45;7.45;;;768.30;1203.20;;;;;;5048456;28;20039;-62
2021/09/14 12:03:39;;;;;;;18.15;7.97;;;768.60;1228.80;;;;;;5048736;28;20078;-61
2021/09/14 12:06:07;;;;;;;9.82;6.57;;;768.40;1228.80;;;;;;5048794;28;20025;-62
2021/09/14 12:08:42;;;;;;;9.25;7.57;;;768.60;1280.00;;;;;;5048875;28;20033;-62
2021/09/14 12:11:09;;;;;;;7.75;6.97;;;768.70;1228.80;;;;;;5048500;28;20029;-62
2021/09/14 12:13:38;;;;;;;12.90;7.57;;;768.90;1254.40;;;;;;5048106;28;20021;-63
2021/09/14 12:16:06;;;;;;;9.25;7.63;;;768.80;1203.20;;;;;;5048618;28;20040;-62
2021/09/14 12:18:32;;;;;;;11.57;7.50;;;768.90;1228.80;;;;;;5048649;28;20058;-62
2021/09/14 12:20:57;;;;;;;10.25;7.95;;;768.50;1228.80;;;;;;5048606;28;20437;-61
2021/09/14 12:23:23;;;;;;;11.68;7.45;;;768.40;1228.80;;;;;;5048705;28;20021;-62
2021/09/14 12:25:50;;;;;;;8.40;7.47;;;768.40;1228.80;;;;;;5048196;28;20092;-62
2021/09/14 12:28:16;;;;;;;7.72;6.50;;;768.20;1228.80;;;;;;5048481;28;20166;-63
2021/09/14 12:30:41;;;;;;;9.55;7.00;;;768.10;1228.80;;;;;;5048657;28;20108;-62
2021/09/14 12:33:07;;;;;;;10.15;7.70;;;768.10;1228.80;;;;;;5048382;28;20484;-61
2021/09/14 12:35:34;;;;;;;9.18;7.65;;;768.40;1203.20;;;;;;5048588;28;20021;-62
2021/09/14 12:38:00;;;;;;;8.70;6.55;;;768.40;1203.20;;;;;;5048584;28;20036;-62
2021/09/14 12:40:25;;;;;;;9.10;7.15;;;768.20;1228.80;;;;;;5047784;28;20041;-62
2021/09/14 12:42:51;;;;;;;10.18;7.38;;;768.40;1228.80;;;;;;5048395;28;20028;-62
2021/09/14 12:45:17;;;;;;;9.65;7.13;;;768.60;1228.80;;;;;;5048223;28;20029;-61
2021/09/14 12:47:43;;;;;;;8.73;6.25;;;768.80;1203.20;;;;;;5048127;28;20036;-61
2021/09/14 12:50:09;;;;;;;8.38;6.20;;;768.80;1177.60;;;;;;5048794;28;20403;-61
2021/09/14 12:52:35;;;;;;;8.70;6.82;;;768.90;1177.60;;;;;;5050065;28;20502;-62
2021/09/14 12:55:01;;;;;;;7.03;6.18;;;768.90;1203.20;;;;;;5038083;28;20118;-61
2021/09/14 12:57:26;;;;;;;8.60;6.55;;;793.70;1254.40;;;;;;5029654;28;20073;-62
2021/09/14 12:59:52;;;;;;;8.57;7.28;;;793.70;1228.80;;;;;;5029703;28;20029;-61
2021/09/14 13:02:18;;;;;;;13.95;7.18;;;793.70;1228.80;;;;;;5041787;28;20029;-60
2021/09/14 13:04:43;;;;;;;13.48;7.72;;;793.60;1254.40;;;;;;5050187;28;20479;-62